Nikolaos Nikas — SVA2542 — position and weather

sailwx.info

Track history (hours):
 
Tides and Currents Weather Stations Pressure Air Temp Water Temp Dewpoint Dewpoint Depression Visibility Wind Speed Wind Dir Waves Ship Positions

Nikolaos Nikas

Last reported at 2017-Dec-13 06:12 UTC. Time now 2018-Jan-21 18:57 UTC.
Position N 37°56' E 024°31'.
Warning: this ship's position is 39 days out of date.

Length 23 m; draft 2 m.

Type: Fishing. MMSI: 240854000.

Date/timePositionNaut miles runAvg speedWind from/ knotsBaromVisibWave heightAir tempDewpointWater temp
2017-Dec-13 06:12N 37°56' E 024°31'210.0
2017-Dec-13 05:59N 37°56' E 024°28'10 9.0
2017-Dec-13 04:52N 37°54' E 024°15'4 2.6
2017-Dec-13 03:15N 37°52' E 024°11'2 1.5
2017-Dec-13 01:47N 37°52' E 024°08'12 3.5
2017-Dec-12 22:22N 38°04' E 024°11'0 0.1
2017-Dec-12 22:00N 38°04' E 024°11'0 0.5
2017-Dec-12 21:19N 38°04' E 024°11'0 0.1
2017-Dec-12 16:26N 38°04' E 024°11'0 0.0
2017-Dec-12 15:54N 38°04' E 024°11'5 6.5
2017-Dec-12 15:04N 38°02' E 024°05'3 0.3
2017-Dec-12 06:25N 38°00' E 024°02'10 4.2
2017-Dec-12 04:10N 37°52' E 024°08'0 0.1
2017-Dec-12 03:38N 37°52' E 024°08'0 0.1
2017-Dec-12 03:28N 37°52' E 024°08'0 0.1
2017-Dec-12 02:52N 37°52' E 024°08'0 0.1
2017-Dec-12 02:26N 37°52' E 024°08'11 3.7
2017-Dec-11 23:23N 38°02' E 024°01'8 4.4
2017-Dec-11 21:38N 38°04' E 024°11'0 0.6
2017-Dec-11 21:28N 38°04' E 024°11'0 0.3
2017-Dec-11 20:57N 38°04' E 024°11'0 0.1
2017-Dec-11 19:58N 38°04' E 024°11'0 0.0
2017-Dec-11 16:51N 38°04' E 024°11'7 3.5
2017-Dec-11 14:47N 38°02' E 024°02'2 0.1
2017-Dec-10 21:50N 38°02' E 024°04'5 3.9
2017-Dec-10 20:27N 38°04' E 024°11'1 0.4
2017-Dec-10 18:59N 38°04' E 024°11'0 0.7
2017-Dec-10 18:24N 38°04' E 024°11'4 1.4
2017-Dec-10 15:12N 38°08' E 024°09'9 0.2
2017-Dec-09 03:21N 38°01' E 024°02'1 0.2
2017-Dec-08 20:20N 38°02' E 024°02'4 0.7
2017-Dec-08 15:22N 38°03' E 024°07'3 8.5
2017-Dec-08 15:00N 38°02' E 024°03'2 0.3
2017-Dec-08 08:06N 38°01' E 024°01'0 0.0
2017-Dec-08 08:00N 38°01' E 024°01'1 0.3
2017-Dec-08 04:15N 38°01' E 024°02'8 4.6
2017-Dec-08 02:27N 37°54' E 024°08'1 0.2
2017-Dec-07 22:14N 37°53' E 024°07'10 1.5
2017-Dec-07 15:05N 38°03' E 024°04'1 7.2
2017-Dec-07 14:56N 38°02' E 024°03'  
Track history (hours):
 
Tides and Currents Weather Stations Pressure Air Temp Water Temp Dewpoint Dewpoint Depression Visibility Wind Speed Wind Dir Waves Ship Positions

Nikolaos Nikas

Last reported at 2017-Dec-13 06:12 UTC. Time now 2018-Jan-21 18:57 UTC.
Position N 37°56' E 024°31'.
Warning: this ship's position is 39 days out of date.

Length 23 m; draft 2 m.

Type: Fishing. MMSI: 240854000.

Date/timePositionNaut miles runAvg speedWind from/ knotsBaromVisibWave heightAir tempDewpointWater temp
2017-Dec-13 06:12N 37°56' E 024°31'210.0
2017-Dec-13 05:59N 37°56' E 024°28'10 9.0
2017-Dec-13 04:52N 37°54' E 024°15'4 2.6
2017-Dec-13 03:15N 37°52' E 024°11'2 1.5
2017-Dec-13 01:47N 37°52' E 024°08'12 3.5
2017-Dec-12 22:22N 38°04' E 024°11'0 0.1
2017-Dec-12 22:00N 38°04' E 024°11'0 0.5
2017-Dec-12 21:19N 38°04' E 024°11'0 0.1
2017-Dec-12 16:26N 38°04' E 024°11'0 0.0
2017-Dec-12 15:54N 38°04' E 024°11'5 6.5
2017-Dec-12 15:04N 38°02' E 024°05'3 0.3
2017-Dec-12 06:25N 38°00' E 024°02'10 4.2
2017-Dec-12 04:10N 37°52' E 024°08'0 0.1
2017-Dec-12 03:38N 37°52' E 024°08'0 0.1
2017-Dec-12 03:28N 37°52' E 024°08'0 0.1
2017-Dec-12 02:52N 37°52' E 024°08'0 0.1
2017-Dec-12 02:26N 37°52' E 024°08'11 3.7
2017-Dec-11 23:23N 38°02' E 024°01'8 4.4
2017-Dec-11 21:38N 38°04' E 024°11'0 0.6
2017-Dec-11 21:28N 38°04' E 024°11'0 0.3
2017-Dec-11 20:57N 38°04' E 024°11'0 0.1
2017-Dec-11 19:58N 38°04' E 024°11'0 0.0
2017-Dec-11 16:51N 38°04' E 024°11'7 3.5
2017-Dec-11 14:47N 38°02' E 024°02'2 0.1
2017-Dec-10 21:50N 38°02' E 024°04'5 3.9
2017-Dec-10 20:27N 38°04' E 024°11'1 0.4
2017-Dec-10 18:59N 38°04' E 024°11'0 0.7
2017-Dec-10 18:24N 38°04' E 024°11'4 1.4
2017-Dec-10 15:12N 38°08' E 024°09'9 0.2
2017-Dec-09 03:21N 38°01' E 024°02'1 0.2
2017-Dec-08 20:20N 38°02' E 024°02'4 0.7
2017-Dec-08 15:22N 38°03' E 024°07'3 8.5
2017-Dec-08 15:00N 38°02' E 024°03'2 0.3
2017-Dec-08 08:06N 38°01' E 024°01'0 0.0
2017-Dec-08 08:00N 38°01' E 024°01'1 0.3
2017-Dec-08 04:15N 38°01' E 024°02'8 4.6
2017-Dec-08 02:27N 37°54' E 024°08'1 0.2
2017-Dec-07 22:14N 37°53' E 024°07'10 1.5
2017-Dec-07 15:05N 38°03' E 024°04'1 7.2
2017-Dec-07 14:56N 38°02' E 024°03'  

Dump ship's entire track history